DSA weather

Robin Hood Doncaster Sheffield Airport
Doncaster, England, United Kingdom

Public forecast

Using degrees Celsius for public forecast. Weather courtesy of forecast.io.

Current aviation weather report (METAR) for Robin Hood Doncaster Sheffield Airport

Retrieved 2019/12/08 15:20 UTC (7 minutes ago):

EGCN 081520Z 23019KT 9999 FEW025CB 08/02 Q0992

Aviation forecast (TAF) for Robin Hood Doncaster Sheffield Airport

Retrieved 2019/12/08 12:00 UTC (3 hours ago):

TAF EGCN 081104Z 0812/0912 25015KT 9999 SCT025 TEMPO 0812/0822 24020G32KT 7000 SHRA BECMG 0821/0824 20005KT TEMPO 0822/0902 BKN014 PROB30 TEMPO 0822/0902 7000 SHRA BECMG 0900/0903 30010KT PROB30 TEMPO 0903/0909 30015G25KT